createdAt,value
2023-08-02T07:03:36.598Z,21.50
2023-08-02T07:15:32.237Z,22.20
2023-08-02T07:17:59.854Z,22.30
2023-08-02T07:20:27.357Z,22.40
2023-08-02T07:22:57.850Z,22.50
2023-08-02T07:25:25.373Z,22.50
2023-08-02T07:27:52.831Z,22.40
2023-08-02T07:30:22.368Z,22.40
2023-08-02T07:32:49.621Z,22.30
2023-08-02T07:35:17.383Z,22.30
2023-08-02T07:37:44.674Z,22.30
2023-08-02T07:56:43.955Z,22.30
2023-08-02T07:59:11.220Z,22.10
2023-08-02T08:01:39.171Z,22.20
2023-08-02T08:04:11.050Z,22.40
2023-08-02T08:06:38.446Z,22.60
2023-08-02T08:09:07.584Z,22.80
2023-08-02T08:11:34.786Z,23.00
2023-08-02T08:14:02.086Z,23.10
2023-08-02T08:16:30.042Z,23.20
2023-08-02T08:18:57.398Z,23.20
2023-08-02T08:21:27.230Z,23.30
2023-08-02T08:23:54.744Z,23.20
2023-08-02T08:26:28.316Z,23.20
2023-08-02T08:31:34.628Z,23.10
2023-08-02T08:34:01.879Z,23.10
2023-08-02T08:36:32.767Z,23.10
2023-08-02T08:39:00.229Z,23.10
2023-08-02T08:41:27.399Z,23.00
2023-08-02T08:43:54.715Z,23.00
2023-08-02T08:46:26.752Z,23.00
2023-08-02T08:48:57.646Z,23.00
2023-08-02T08:51:30.979Z,23.00
2023-08-02T08:57:41.592Z,23.20
2023-08-02T09:00:12.800Z,23.40
2023-08-02T09:05:33.567Z,24.00
2023-08-02T09:08:50.724Z,24.20
2023-08-02T09:12:04.681Z,24.60
2023-08-02T09:14:32.133Z,25.10
2023-08-02T09:17:20.706Z,25.10
2023-08-02T09:19:51.106Z,25.10
2023-08-02T09:22:18.186Z,25.30
2023-08-02T09:24:46.406Z,25.80
2023-08-02T09:27:16.156Z,26.10
2023-08-02T09:29:47.713Z,26.40
2023-08-02T09:32:42.181Z,26.80
2023-08-02T09:35:19.981Z,27.10
2023-08-02T09:43:11.019Z,28.10
2023-08-02T09:45:47.293Z,28.30
2023-08-02T09:48:14.550Z,28.20
2023-08-02T09:51:05.306Z,27.90
2023-08-02T09:53:32.948Z,28.00
2023-08-02T10:09:55.244Z,28.40
2023-08-02T10:12:51.125Z,28.60
2023-08-02T10:15:30.616Z,29.00
2023-08-02T10:18:00.489Z,29.00
2023-08-02T10:20:28.499Z,28.50
2023-08-02T10:22:58.308Z,28.70
2023-08-02T10:25:26.180Z,28.80
2023-08-02T10:27:53.815Z,29.00
2023-08-02T10:30:21.251Z,28.80
2023-08-02T10:33:13.587Z,29.10
2023-08-02T10:36:02.624Z,29.50
2023-08-02T10:38:45.951Z,29.70
2023-08-02T10:41:17.612Z,29.90
2023-08-02T10:43:56.904Z,30.10
2023-08-02T10:46:28.346Z,30.30
2023-08-02T10:51:50.670Z,30.60
2023-08-02T11:03:14.253Z,28.80
2023-08-02T11:05:47.535Z,28.10
2023-08-02T11:11:03.510Z,28.30
2023-08-02T11:13:44.197Z,28.50
2023-08-02T11:16:15.293Z,28.80
2023-08-02T11:18:43.452Z,29.10
2023-08-02T11:21:11.591Z,29.20
2023-08-02T11:23:39.560Z,29.40
2023-08-02T11:26:26.584Z,29.40
2023-08-02T11:28:55.291Z,29.40
2023-08-02T11:34:07.876Z,29.40
2023-08-02T11:36:37.825Z,29.50
2023-08-02T11:42:08.064Z,29.40
2023-08-02T11:44:37.013Z,29.40
2023-08-02T11:47:11.790Z,29.30
2023-08-02T11:50:47.411Z,29.30
2023-08-02T11:53:09.869Z,29.10
2023-08-02T11:55:42.788Z,29.00
2023-08-02T12:00:53.280Z,29.20
2023-08-02T12:03:24.481Z,29.30
2023-08-02T12:05:59.898Z,29.40
2023-08-02T12:08:27.630Z,29.30
2023-08-02T12:11:35.157Z,29.10
2023-08-02T12:14:04.042Z,29.10
2023-08-02T12:16:44.793Z,28.90
2023-08-02T12:19:12.606Z,28.70
2023-08-02T12:21:41.744Z,28.80
2023-08-02T12:24:19.462Z,28.90
2023-08-02T12:26:47.668Z,28.90
2023-08-02T12:29:30.530Z,29.00
2023-08-02T12:31:58.122Z,29.00
2023-08-02T12:34:31.424Z,29.10
2023-08-02T12:37:00.817Z,29.10
2023-08-02T12:39:29.293Z,29.20
2023-08-02T12:41:56.691Z,29.40
2023-08-02T12:44:23.925Z,29.60
2023-08-02T13:46:34.396Z,30.80
2023-08-02T13:49:13.761Z,30.70
2023-08-02T14:05:31.195Z,30.40
2023-08-02T14:35:25.362Z,30.80
2023-08-02T14:46:05.453Z,30.50
2023-08-02T14:48:45.510Z,30.60
2023-08-02T14:51:16.243Z,30.70
2023-08-02T23:22:09.142Z,23.70
2023-08-02T23:41:42.522Z,23.40
